createdAt,value
2023-12-21T00:02:13.242Z,58.70
2023-12-21T00:04:40.019Z,58.70
2023-12-21T00:07:06.877Z,58.60
2023-12-21T00:09:33.613Z,58.50
2023-12-21T00:12:00.254Z,58.50
2023-12-21T00:14:31.075Z,58.60
2023-12-21T00:16:58.622Z,58.50
2023-12-21T00:19:25.441Z,58.40
2023-12-21T00:21:52.198Z,58.20
2023-12-21T00:24:18.893Z,58.20
2023-12-21T00:26:45.549Z,58.50
2023-12-21T00:29:12.256Z,58.40
2023-12-21T00:31:38.941Z,58.30
2023-12-21T00:34:06.279Z,58.30
2023-12-21T00:36:33.073Z,58.40
2023-12-21T00:38:59.832Z,58.40
2023-12-21T00:41:26.544Z,58.40
2023-12-21T00:43:53.233Z,58.40
2023-12-21T00:46:19.895Z,58.40
2023-12-21T00:48:46.656Z,58.40
2023-12-21T00:51:13.354Z,58.30
2023-12-21T00:53:40.000Z,58.20
2023-12-21T00:56:06.699Z,58.20
2023-12-21T00:58:33.393Z,58.20
2023-12-21T01:01:00.364Z,58.30
2023-12-21T01:03:27.184Z,58.90
2023-12-21T01:05:53.892Z,58.30
2023-12-21T01:08:20.561Z,58.30
2023-12-21T01:10:47.214Z,58.40
2023-12-21T01:13:13.913Z,58.50
2023-12-21T01:15:40.548Z,58.40
2023-12-21T01:18:07.357Z,58.50
2023-12-21T01:20:34.696Z,58.40
2023-12-21T01:23:01.360Z,58.40
2023-12-21T01:25:28.097Z,58.30
2023-12-21T01:27:54.836Z,58.30
2023-12-21T01:30:22.950Z,58.40
2023-12-21T01:32:49.797Z,58.70
2023-12-21T01:35:16.590Z,58.90
2023-12-21T01:37:43.357Z,59.00
2023-12-21T01:40:10.395Z,58.90
2023-12-21T01:42:37.058Z,58.90
2023-12-21T01:45:03.933Z,58.90
2023-12-21T01:47:30.594Z,59.00
2023-12-21T01:49:57.314Z,59.10
2023-12-21T01:52:24.036Z,59.10
2023-12-21T01:54:50.742Z,59.20
2023-12-21T01:57:17.503Z,59.10
2023-12-21T01:59:44.149Z,59.00
2023-12-21T02:02:10.873Z,59.00
2023-12-21T02:04:37.636Z,59.10
2023-12-21T02:07:04.530Z,59.00
2023-12-21T02:09:31.165Z,58.70
2023-12-21T02:11:57.822Z,58.90
2023-12-21T02:14:24.476Z,58.90
2023-12-21T02:16:58.284Z,59.00
2023-12-21T02:19:25.049Z,58.90
2023-12-21T02:21:52.009Z,59.60
2023-12-21T02:24:18.846Z,59.00
2023-12-21T02:26:45.644Z,58.90
2023-12-21T02:29:12.340Z,59.00
2023-12-21T02:31:39.065Z,59.00
2023-12-21T02:34:10.353Z,59.10
2023-12-21T02:36:37.138Z,59.20
2023-12-21T02:39:03.806Z,59.30
2023-12-21T02:41:30.538Z,59.40
2023-12-21T02:43:57.224Z,59.40
2023-12-21T02:46:25.888Z,59.40
2023-12-21T02:48:55.521Z,59.40
2023-12-21T02:51:22.229Z,59.30
2023-12-21T02:53:48.910Z,59.40
2023-12-21T02:56:15.575Z,59.40
2023-12-21T02:58:42.406Z,59.40
2023-12-21T03:01:09.192Z,59.40
2023-12-21T03:03:36.043Z,59.50
2023-12-21T03:06:02.758Z,59.60
2023-12-21T03:08:29.775Z,59.50
2023-12-21T03:10:56.418Z,59.70
2023-12-21T03:13:23.209Z,59.90
2023-12-21T03:15:50.894Z,59.90
2023-12-21T03:18:17.643Z,60.00
2023-12-21T03:20:44.325Z,60.00
2023-12-21T03:23:10.939Z,59.90
2023-12-21T03:25:37.840Z,59.70
2023-12-21T03:28:06.940Z,59.70
2023-12-21T03:30:33.644Z,59.60
2023-12-21T03:33:00.355Z,59.60
2023-12-21T03:35:27.082Z,59.60
2023-12-21T03:37:53.726Z,59.50
2023-12-21T03:40:20.363Z,59.50
2023-12-21T03:42:50.858Z,59.40
2023-12-21T03:45:17.635Z,59.40
2023-12-21T03:47:44.331Z,59.50
2023-12-21T03:50:11.101Z,59.60
2023-12-21T03:52:37.951Z,59.70
2023-12-21T03:55:05.388Z,59.70
2023-12-21T03:57:32.088Z,59.80
2023-12-21T03:59:58.890Z,59.70
2023-12-21T04:02:25.565Z,59.70
2023-12-21T04:04:52.282Z,59.70
2023-12-21T04:07:18.997Z,59.50
2023-12-21T04:09:45.657Z,59.40
2023-12-21T04:12:12.298Z,59.40
2023-12-21T04:14:38.929Z,59.50
2023-12-21T04:17:05.558Z,59.60
2023-12-21T04:19:32.215Z,59.80
2023-12-21T04:21:58.964Z,59.90
2023-12-21T04:24:25.607Z,60.00
2023-12-21T04:26:52.365Z,60.00
2023-12-21T04:29:19.063Z,60.10
2023-12-21T04:31:46.254Z,60.20
2023-12-21T04:34:13.134Z,60.30
2023-12-21T04:36:39.865Z,60.20
2023-12-21T04:39:06.553Z,60.10
2023-12-21T04:41:33.233Z,60.10
2023-12-21T04:43:59.893Z,60.10
2023-12-21T04:46:26.565Z,59.90
2023-12-21T04:48:53.309Z,59.90
2023-12-21T04:51:20.024Z,59.80
2023-12-21T04:53:46.679Z,60.00
2023-12-21T04:56:13.400Z,59.90
2023-12-21T04:58:41.815Z,59.90
2023-12-21T05:01:08.714Z,60.00
2023-12-21T05:03:35.512Z,60.00
2023-12-21T05:06:03.013Z,60.10
2023-12-21T05:08:30.130Z,60.20
2023-12-21T05:10:56.762Z,60.20
2023-12-21T05:13:23.422Z,60.20
2023-12-21T05:15:50.031Z,60.40
2023-12-21T05:18:16.786Z,60.50
2023-12-21T05:20:43.488Z,60.50
2023-12-21T05:23:10.153Z,60.60
2023-12-21T05:25:36.909Z,60.60
2023-12-21T05:28:03.729Z,60.60
2023-12-21T05:30:30.475Z,60.60
2023-12-21T05:32:57.156Z,60.50
2023-12-21T05:35:23.887Z,60.70
2023-12-21T05:37:50.587Z,60.80
2023-12-21T05:40:17.660Z,60.70
2023-12-21T05:42:44.553Z,60.60
2023-12-21T05:45:11.389Z,60.70
2023-12-21T05:47:38.067Z,60.80
2023-12-21T05:50:05.939Z,60.80
2023-12-21T05:52:32.882Z,60.80
2023-12-21T05:54:59.584Z,60.90
2023-12-21T05:57:26.388Z,60.90
2023-12-21T05:59:53.598Z,60.90
2023-12-21T06:02:20.423Z,61.00
2023-12-21T06:04:47.221Z,60.90
2023-12-21T06:07:14.043Z,61.00
2023-12-21T06:09:40.704Z,61.00
2023-12-21T06:12:07.829Z,60.90
2023-12-21T06:14:34.613Z,60.90
2023-12-21T06:17:01.398Z,60.90
2023-12-21T06:19:28.374Z,61.00
2023-12-21T06:21:55.272Z,61.00
2023-12-21T06:24:22.057Z,61.10
2023-12-21T06:26:48.721Z,61.00
2023-12-21T06:29:15.406Z,60.90
2023-12-21T06:31:42.219Z,60.80
2023-12-21T06:34:09.069Z,60.90
2023-12-21T06:36:35.852Z,60.90
2023-12-21T06:39:02.627Z,60.90
2023-12-21T06:41:29.730Z,60.90
2023-12-21T06:43:56.395Z,60.80
2023-12-21T06:46:23.098Z,60.80
2023-12-21T06:48:49.836Z,60.70
2023-12-21T06:51:17.105Z,60.70
2023-12-21T06:53:43.759Z,60.50
2023-12-21T06:56:23.567Z,60.50
2023-12-21T06:58:57.218Z,60.40
2023-12-21T07:01:27.627Z,60.50
2023-12-21T07:03:55.371Z,60.70
2023-12-21T07:06:22.019Z,60.80
2023-12-21T07:08:48.743Z,60.90
2023-12-21T07:11:15.497Z,61.00
2023-12-21T07:13:42.218Z,61.00
2023-12-21T07:16:10.155Z,61.20
2023-12-21T07:18:37.006Z,61.30
2023-12-21T07:21:07.121Z,61.20
2023-12-21T07:23:33.916Z,61.30
2023-12-21T07:26:00.653Z,61.30
2023-12-21T07:28:29.534Z,61.30
2023-12-21T07:30:56.780Z,61.30
2023-12-21T07:33:23.777Z,61.30
2023-12-21T07:35:50.584Z,61.30
2023-12-21T07:38:17.274Z,61.40
2023-12-21T07:40:45.126Z,61.40
2023-12-21T07:43:11.970Z,61.50
2023-12-21T07:45:38.659Z,61.50
2023-12-21T07:48:05.793Z,61.40
2023-12-21T07:50:32.482Z,61.40
2023-12-21T07:52:59.398Z,61.40
2023-12-21T07:55:26.233Z,61.10
2023-12-21T07:57:53.153Z,61.30
2023-12-21T08:00:19.946Z,61.40
2023-12-21T08:02:46.981Z,61.50
2023-12-21T08:05:14.359Z,61.70
2023-12-21T08:07:41.510Z,61.90
2023-12-21T08:10:08.878Z,62.00
2023-12-21T08:12:38.759Z,62.20
2023-12-21T08:15:05.855Z,62.30
2023-12-21T08:17:32.943Z,62.30
2023-12-21T08:19:59.812Z,62.50
2023-12-21T08:22:27.017Z,62.40
2023-12-21T08:24:53.909Z,62.50
2023-12-21T08:27:20.921Z,62.50
2023-12-21T08:29:47.630Z,62.50
2023-12-21T08:32:15.146Z,62.60
2023-12-21T08:34:42.217Z,62.60
2023-12-21T08:37:09.108Z,62.60
2023-12-21T08:39:35.819Z,62.60
2023-12-21T08:42:03.667Z,62.60
2023-12-21T08:44:32.738Z,62.60
2023-12-21T08:47:01.027Z,62.50
2023-12-21T08:49:28.202Z,62.60
2023-12-21T08:51:55.233Z,62.50
2023-12-21T08:54:22.542Z,62.50
2023-12-21T08:56:51.912Z,62.50
2023-12-21T08:59:19.207Z,62.40
2023-12-21T09:01:46.048Z,62.30
2023-12-21T09:04:12.865Z,62.40
2023-12-21T09:06:40.150Z,62.20
2023-12-21T09:09:06.847Z,62.20
2023-12-21T09:11:33.539Z,62.20
2023-12-21T09:14:00.270Z,62.00
2023-12-21T09:16:27.015Z,62.80
2023-12-21T09:18:53.903Z,62.20
2023-12-21T09:21:20.677Z,62.30
2023-12-21T09:23:47.850Z,62.20
2023-12-21T09:26:14.797Z,62.20
2023-12-21T09:28:42.875Z,62.20
2023-12-21T09:31:10.174Z,62.20
2023-12-21T09:33:38.228Z,62.10
2023-12-21T09:36:05.547Z,62.20
2023-12-21T09:38:32.929Z,62.20
2023-12-21T09:41:00.510Z,62.30
2023-12-21T09:43:28.725Z,62.30
2023-12-21T09:45:56.727Z,62.30
2023-12-21T09:48:23.679Z,62.40
2023-12-21T09:50:51.349Z,62.70
2023-12-21T09:53:18.353Z,62.70
2023-12-21T09:55:45.180Z,62.80
2023-12-21T09:58:14.795Z,62.90
2023-12-21T10:00:41.790Z,63.60
2023-12-21T10:03:08.755Z,62.90
2023-12-21T10:05:36.602Z,63.00
2023-12-21T10:08:03.528Z,62.90
2023-12-21T10:10:30.229Z,62.90
2023-12-21T10:12:57.085Z,63.10
2023-12-21T10:15:23.761Z,63.10
2023-12-21T10:17:50.728Z,63.20
2023-12-21T10:20:17.856Z,63.20
2023-12-21T10:22:44.997Z,63.10
2023-12-21T10:25:12.100Z,63.20
2023-12-21T10:27:38.746Z,63.00
2023-12-21T10:30:05.948Z,62.80
2023-12-21T10:32:33.326Z,62.70
2023-12-21T10:35:00.746Z,62.80
2023-12-21T10:37:28.040Z,62.80
2023-12-21T10:39:57.298Z,62.90
2023-12-21T10:42:24.223Z,62.80
2023-12-21T10:44:51.487Z,63.00
2023-12-21T10:47:18.322Z,63.20
2023-12-21T10:49:45.333Z,63.10
2023-12-21T10:52:13.054Z,63.00
2023-12-21T10:54:43.272Z,63.00
2023-12-21T10:57:10.261Z,63.00
2023-12-21T10:59:36.974Z,63.00
2023-12-21T11:02:04.272Z,63.10
2023-12-21T11:04:31.018Z,63.00
2023-12-21T11:06:58.107Z,63.00
2023-12-21T11:09:26.696Z,62.90
2023-12-21T11:11:58.302Z,62.90
2023-12-21T11:14:25.543Z,63.10
2023-12-21T11:16:55.238Z,63.10
2023-12-21T11:19:26.889Z,62.90
2023-12-21T11:21:54.901Z,62.90
2023-12-21T11:24:22.593Z,63.00
2023-12-21T11:26:50.060Z,63.30
2023-12-21T11:29:27.420Z,63.30
2023-12-21T11:31:54.339Z,63.30
2023-12-21T11:34:25.765Z,63.30
2023-12-21T11:36:59.517Z,63.20
2023-12-21T11:39:26.179Z,63.20
2023-12-21T11:41:59.894Z,63.20
2023-12-21T11:44:36.987Z,63.10
2023-12-21T11:47:07.004Z,63.10
2023-12-21T11:49:33.900Z,63.20
2023-12-21T11:52:01.184Z,63.00
2023-12-21T11:54:27.866Z,63.20
2023-12-21T11:56:55.650Z,63.20
2023-12-21T11:59:28.909Z,63.20
2023-12-21T12:01:55.740Z,63.30
2023-12-21T12:04:22.606Z,63.30
2023-12-21T12:06:51.074Z,63.30
2023-12-21T12:09:21.006Z,62.30
2023-12-21T12:11:47.836Z,62.10
2023-12-21T12:14:14.558Z,62.10
2023-12-21T12:16:41.445Z,62.00
2023-12-21T12:19:12.405Z,62.00
2023-12-21T12:21:39.223Z,62.20
2023-12-21T12:24:08.860Z,62.00
2023-12-21T12:26:35.821Z,62.00
2023-12-21T12:29:02.551Z,62.20
2023-12-21T12:31:29.418Z,62.40
2023-12-21T12:33:56.618Z,62.40
2023-12-21T12:36:23.370Z,62.30
2023-12-21T12:38:51.728Z,62.30
2023-12-21T12:41:21.704Z,62.30
2023-12-21T12:43:48.499Z,62.30
2023-12-21T12:46:15.869Z,62.20
2023-12-21T12:48:42.724Z,62.20
2023-12-21T12:51:12.948Z,62.10
2023-12-21T12:53:43.097Z,62.10
2023-12-21T12:56:09.805Z,62.10
2023-12-21T12:58:49.250Z,62.30
2023-12-21T13:01:26.331Z,62.10
2023-12-21T13:03:53.694Z,62.20
2023-12-21T13:06:20.836Z,62.10
2023-12-21T13:08:47.846Z,62.70
2023-12-21T13:11:17.009Z,62.30
2023-12-21T13:13:43.926Z,62.10
2023-12-21T13:16:10.690Z,62.30
2023-12-21T13:18:38.213Z,62.50
2023-12-21T13:21:05.186Z,62.60
2023-12-21T13:23:32.605Z,62.50
2023-12-21T13:25:59.589Z,62.40
2023-12-21T13:28:26.697Z,62.50
2023-12-21T13:30:53.922Z,63.40
2023-12-21T13:33:20.800Z,63.80
2023-12-21T13:35:47.994Z,63.80
2023-12-21T13:38:16.918Z,64.00
2023-12-21T13:40:44.089Z,64.00
2023-12-21T13:43:11.538Z,62.90
2023-12-21T13:45:38.236Z,62.80
2023-12-21T13:48:06.593Z,62.70
2023-12-21T13:50:34.304Z,62.70
2023-12-21T13:53:04.343Z,62.90
2023-12-21T13:55:31.518Z,62.90
2023-12-21T13:57:58.225Z,62.80
2023-12-21T14:00:25.530Z,62.60
2023-12-21T14:02:52.351Z,62.70
2023-12-21T14:05:19.300Z,62.80
2023-12-21T14:07:46.959Z,63.00
2023-12-21T14:10:14.149Z,63.30
2023-12-21T14:12:40.887Z,63.10
2023-12-21T14:15:08.878Z,63.00
2023-12-21T14:17:35.927Z,63.10
2023-12-21T14:20:03.272Z,63.30
2023-12-21T14:22:30.082Z,63.30
2023-12-21T14:24:56.751Z,63.20
2023-12-21T14:27:23.793Z,63.20
2023-12-21T14:29:50.467Z,63.20
2023-12-21T14:32:18.988Z,63.30
2023-12-21T14:34:45.757Z,63.30
2023-12-21T14:37:14.662Z,63.30
2023-12-21T14:39:41.643Z,63.40
2023-12-21T14:42:08.343Z,63.20
2023-12-21T14:44:37.496Z,63.20
2023-12-21T14:47:04.642Z,63.20
2023-12-21T14:49:31.424Z,63.30
2023-12-21T14:51:58.114Z,63.20
2023-12-21T14:54:24.755Z,63.30
2023-12-21T14:56:51.662Z,63.20
2023-12-21T14:59:18.342Z,63.10
2023-12-21T15:01:49.243Z,63.00
2023-12-21T15:04:16.224Z,63.00
2023-12-21T15:06:43.058Z,63.00
2023-12-21T15:09:10.244Z,62.90
2023-12-21T15:11:37.046Z,62.90
2023-12-21T15:14:04.889Z,62.80
2023-12-21T15:16:34.130Z,62.80
2023-12-21T15:19:01.433Z,62.90
2023-12-21T15:21:28.444Z,62.80
2023-12-21T15:23:55.259Z,62.60
2023-12-21T15:26:22.191Z,62.50
2023-12-21T15:28:48.884Z,62.50
2023-12-21T15:31:17.122Z,62.50
2023-12-21T15:33:43.896Z,62.50
2023-12-21T15:36:16.810Z,62.40
2023-12-21T15:38:44.064Z,62.20
2023-12-21T15:41:20.489Z,62.40
2023-12-21T15:43:48.015Z,63.00
2023-12-21T15:46:17.355Z,62.50
2023-12-21T15:48:44.125Z,62.40
2023-12-21T15:51:10.879Z,62.30
2023-12-21T15:53:37.688Z,62.40
2023-12-21T15:56:04.632Z,62.50
2023-12-21T15:58:33.146Z,62.40
2023-12-21T16:01:02.124Z,62.40
2023-12-21T16:03:28.796Z,62.30
2023-12-21T16:05:55.534Z,62.30
2023-12-21T16:08:23.385Z,62.10
2023-12-21T16:10:50.229Z,62.20
2023-12-21T16:13:16.997Z,62.30
2023-12-21T16:15:43.688Z,62.20
2023-12-21T16:18:10.408Z,62.00
2023-12-21T16:20:37.154Z,62.10
2023-12-21T16:23:04.022Z,62.10
2023-12-21T16:25:31.039Z,62.00
2023-12-21T16:27:57.728Z,61.70
2023-12-21T16:30:24.406Z,61.70
2023-12-21T16:32:54.245Z,61.70
2023-12-21T16:35:21.728Z,61.60
2023-12-21T16:37:48.565Z,61.50
2023-12-21T16:40:20.937Z,61.50
2023-12-21T16:42:47.775Z,61.40
2023-12-21T16:45:14.710Z,61.40
2023-12-21T16:47:41.851Z,61.40
2023-12-21T16:50:09.023Z,61.30
2023-12-21T16:52:35.824Z,61.20
2023-12-21T16:55:04.005Z,61.20
2023-12-21T16:57:30.675Z,61.30
2023-12-21T16:59:57.338Z,61.40
2023-12-21T17:02:25.294Z,61.30
2023-12-21T17:04:52.693Z,61.20
2023-12-21T17:07:20.964Z,61.20
2023-12-21T17:09:47.666Z,61.30
2023-12-21T17:12:14.390Z,61.30
2023-12-21T17:14:41.045Z,61.20
2023-12-21T17:17:07.975Z,61.20
2023-12-21T17:19:34.835Z,61.20
2023-12-21T17:22:02.667Z,61.30
2023-12-21T17:24:29.373Z,61.30
2023-12-21T17:26:56.093Z,61.20
2023-12-21T17:29:22.729Z,61.10
2023-12-21T17:31:49.480Z,60.80
2023-12-21T17:34:20.201Z,60.90
2023-12-21T17:36:47.255Z,61.00
2023-12-21T17:39:13.960Z,61.00
2023-12-21T17:41:40.603Z,60.80
2023-12-21T17:44:07.616Z,60.70
2023-12-21T17:46:34.263Z,60.60
2023-12-21T17:49:01.198Z,60.90
2023-12-21T17:51:27.986Z,60.70
2023-12-21T17:53:54.623Z,60.80
2023-12-21T17:56:21.270Z,60.70
2023-12-21T17:58:48.129Z,60.40
2023-12-21T18:01:15.137Z,60.50
2023-12-21T18:03:41.946Z,60.50
2023-12-21T18:06:08.606Z,60.10
2023-12-21T18:08:35.238Z,60.00
2023-12-21T18:11:02.033Z,59.80
2023-12-21T18:13:28.896Z,59.60
2023-12-21T18:15:55.579Z,59.60
2023-12-21T18:18:23.184Z,59.30
2023-12-21T18:20:50.498Z,59.30
2023-12-21T18:23:17.317Z,58.60
2023-12-21T18:25:46.034Z,58.20
2023-12-21T18:28:13.510Z,57.90
2023-12-21T18:30:40.152Z,58.10
2023-12-21T18:33:06.876Z,58.30
2023-12-21T18:35:33.635Z,58.40
2023-12-21T18:38:00.373Z,58.10
2023-12-21T18:40:27.256Z,57.60
2023-12-21T18:42:54.089Z,57.80
2023-12-21T18:45:20.812Z,57.70
2023-12-21T18:47:48.388Z,57.40
2023-12-21T18:50:15.339Z,57.00
2023-12-21T18:52:42.119Z,56.30
2023-12-21T18:55:09.162Z,56.20
2023-12-21T18:57:35.916Z,56.10
2023-12-21T19:00:02.579Z,55.90
2023-12-21T19:02:29.242Z,55.80
2023-12-21T19:04:56.088Z,55.90
2023-12-21T19:07:22.974Z,56.00
2023-12-21T19:09:50.050Z,55.90
2023-12-21T19:12:16.701Z,56.20
2023-12-21T19:14:43.598Z,56.20
2023-12-21T19:17:10.259Z,54.90
2023-12-21T19:19:37.003Z,55.20
2023-12-21T19:22:03.809Z,54.60
2023-12-21T19:24:30.836Z,54.70
2023-12-21T19:26:57.699Z,54.10
2023-12-21T19:29:24.657Z,53.80
2023-12-21T19:31:51.356Z,53.60
2023-12-21T19:34:18.886Z,53.80
2023-12-21T19:36:45.615Z,53.90
2023-12-21T19:39:12.316Z,54.10
2023-12-21T19:41:39.008Z,54.10
2023-12-21T19:44:05.636Z,54.30
2023-12-21T19:46:32.354Z,54.10
2023-12-21T19:48:59.141Z,54.10
2023-12-21T19:51:25.879Z,54.20
2023-12-21T19:53:52.545Z,54.30
2023-12-21T19:56:19.589Z,53.10
2023-12-21T19:58:50.217Z,52.10
2023-12-21T20:01:17.074Z,52.00
2023-12-21T20:03:43.841Z,52.20
2023-12-21T20:06:10.532Z,52.30
2023-12-21T20:08:37.215Z,51.90
2023-12-21T20:11:04.152Z,51.40
2023-12-21T20:13:30.932Z,51.30
2023-12-21T20:15:57.658Z,50.40
2023-12-21T20:18:24.764Z,49.60
2023-12-21T20:20:51.607Z,48.70
2023-12-21T20:23:18.331Z,47.50
2023-12-21T20:25:45.173Z,48.00
2023-12-21T20:28:12.033Z,48.00
2023-12-21T20:30:38.706Z,48.20
2023-12-21T20:33:09.336Z,48.10
2023-12-21T20:35:37.509Z,48.30
2023-12-21T20:38:05.133Z,47.80
2023-12-21T20:40:37.672Z,47.60
2023-12-21T20:43:05.628Z,47.20
2023-12-21T20:45:32.660Z,46.90
2023-12-21T20:47:59.709Z,46.90
2023-12-21T20:50:26.460Z,46.80
2023-12-21T20:52:54.555Z,46.80
2023-12-21T20:55:23.921Z,46.50
2023-12-21T20:57:53.701Z,46.80
2023-12-21T21:00:20.457Z,46.70
2023-12-21T21:02:47.139Z,46.90
2023-12-21T21:05:14.405Z,46.70
2023-12-21T21:07:41.801Z,47.50
2023-12-21T21:10:09.089Z,47.60
2023-12-21T21:12:35.787Z,48.00
2023-12-21T21:15:02.508Z,48.40
2023-12-21T21:17:29.168Z,48.70
2023-12-21T21:19:58.843Z,48.90
2023-12-21T21:22:26.028Z,48.90
2023-12-21T21:24:53.233Z,49.10
2023-12-21T21:27:19.855Z,49.30
2023-12-21T21:29:46.665Z,49.40
2023-12-21T21:32:15.299Z,49.20
2023-12-21T21:34:41.964Z,49.10
2023-12-21T21:37:11.415Z,49.00
2023-12-21T21:39:39.591Z,49.00
2023-12-21T21:42:07.345Z,48.90
2023-12-21T21:44:34.327Z,48.80
2023-12-21T21:47:01.993Z,48.60
2023-12-21T21:49:29.085Z,48.70
2023-12-21T21:52:00.157Z,48.70
2023-12-21T21:54:28.171Z,49.30
2023-12-21T21:56:56.127Z,48.80
2023-12-21T21:59:23.200Z,48.60
2023-12-21T22:01:50.439Z,48.20
2023-12-21T22:04:17.767Z,48.10
2023-12-21T22:06:45.002Z,47.70
2023-12-21T22:09:12.185Z,47.60
2023-12-21T22:11:40.946Z,47.50
2023-12-21T22:14:07.577Z,47.30
2023-12-21T22:16:34.540Z,47.50
2023-12-21T22:19:01.572Z,47.40
2023-12-21T22:21:30.554Z,47.70
2023-12-21T22:23:57.218Z,47.60
2023-12-21T22:26:23.872Z,47.60
2023-12-21T22:28:50.592Z,47.60
2023-12-21T22:31:17.611Z,47.70
2023-12-21T22:33:44.306Z,47.90
2023-12-21T22:36:12.228Z,48.00
2023-12-21T22:38:39.055Z,48.20
2023-12-21T22:41:07.854Z,48.40
2023-12-21T22:43:42.120Z,48.70
2023-12-21T22:46:10.300Z,48.80
2023-12-21T22:48:37.247Z,49.10
2023-12-21T22:51:04.149Z,49.30
2023-12-21T22:53:32.121Z,49.40
2023-12-21T22:55:58.982Z,49.50
2023-12-21T22:58:26.117Z,49.70
2023-12-21T23:00:52.933Z,49.90
2023-12-21T23:03:19.957Z,50.00
2023-12-21T23:05:46.811Z,49.70
2023-12-21T23:08:13.534Z,49.90
2023-12-21T23:10:44.267Z,50.10
2023-12-21T23:13:18.369Z,50.30
2023-12-21T23:15:48.480Z,50.20
2023-12-21T23:18:15.453Z,50.10
2023-12-21T23:20:42.459Z,50.10
2023-12-21T23:23:09.120Z,50.10
2023-12-21T23:25:36.019Z,50.20
2023-12-21T23:28:02.896Z,50.20
2023-12-21T23:30:29.617Z,50.30
2023-12-21T23:32:56.435Z,50.30
2023-12-21T23:35:25.432Z,50.30
2023-12-21T23:37:52.657Z,50.20
2023-12-21T23:40:19.801Z,50.30
2023-12-21T23:42:46.694Z,50.40
2023-12-21T23:45:13.537Z,50.50
2023-12-21T23:47:40.344Z,50.40
2023-12-21T23:50:07.988Z,50.30
2023-12-21T23:52:34.878Z,50.40
2023-12-21T23:55:01.667Z,50.40
2023-12-21T23:57:28.592Z,50.30
2023-12-21T23:59:55.526Z,50.20
